aviador You're here:

KGEY Decoded Metar

GREYBULL in WY, USA
Report Time2018-06-18 14:53:00
UTC Time2018-06-18 15:21:38
Flight Rules vfr VFR
WindCalm
Visibility9999 m
Phenomena:N/A
Clouds:Few 009 Hf
Overcast 055 Hf
Expected CloudBase > 1,200 ft AGL from Temp-Dew spread
Ceiling5,500 ft
Temp16°C (ISA +9)
Dew Point13°C (83% RH)
QNH1015 hPa
Density Alt5,079 ft
Elevation3,907 ft
Report Wrong Elevation
Raw Report
KGEY 181453Z AUTO 00000KT 10SM FEW009 OVC055 16/13 A2997 RMK AO2
SLP125 T01610133 50002=

Extra information for KGEY:More info

Metar Taf Metar & Taf Last 4 Metars F.Rules Stats Wind Profile Meteogram Temp Stats Airport Information Weather charts Add Link Nearby VenuesMetar ALERT Operation Metar Decoded Social comments

AIRNAV info for KGEY